sensor_id;sensor_type;location;lat;lon;timestamp;P1;durP1;ratioP1;P2;durP2;ratioP2
23628;SDS011;11991;57.150;-2.134;2023-11-19T00:00:32;3.33;;;1.33;;
23628;SDS011;11991;57.150;-2.134;2023-11-19T00:02:59;3.53;;;1.85;;
23628;SDS011;11991;57.150;-2.134;2023-11-19T00:05:26;1.95;;;1.60;;
23628;SDS011;11991;57.150;-2.134;2023-11-19T00:07:54;3.33;;;2.10;;
23628;SDS011;11991;57.150;-2.134;2023-11-19T00:10:21;2.10;;;1.63;;
23628;SDS011;11991;57.150;-2.134;2023-11-19T00:12:49;4.10;;;2.25;;
23628;SDS011;11991;57.150;-2.134;2023-11-19T00:15:17;2.20;;;1.88;;
23628;SDS011;11991;57.150;-2.134;2023-11-19T00:17:46;3.40;;;2.50;;
23628;SDS011;11991;57.150;-2.134;2023-11-19T00:20:16;3.47;;;2.08;;
23628;SDS011;11991;57.150;-2.134;2023-11-19T00:22:44;3.13;;;1.58;;
23628;SDS011;11991;57.150;-2.134;2023-11-19T00:25:19;2.58;;;1.60;;
23628;SDS011;11991;57.150;-2.134;2023-11-19T00:27:48;2.92;;;2.00;;
23628;SDS011;11991;57.150;-2.134;2023-11-19T00:30:17;2.50;;;1.63;;
23628;SDS011;11991;57.150;-2.134;2023-11-19T00:32:44;3.92;;;2.35;;
23628;SDS011;11991;57.150;-2.134;2023-11-19T00:35:12;2.55;;;1.60;;
23628;SDS011;11991;57.150;-2.134;2023-11-19T00:37:42;3.95;;;2.17;;
23628;SDS011;11991;57.150;-2.134;2023-11-19T00:40:09;3.13;;;2.20;;
23628;SDS011;11991;57.150;-2.134;2023-11-19T00:42:38;4.00;;;1.83;;
23628;SDS011;11991;57.150;-2.134;2023-11-19T00:45:05;2.97;;;2.08;;
23628;SDS011;11991;57.150;-2.134;2023-11-19T00:47:37;4.15;;;2.03;;
23628;SDS011;11991;57.150;-2.134;2023-11-19T00:50:05;2.00;;;1.58;;
23628;SDS011;11991;57.150;-2.134;2023-11-19T00:52:36;2.00;;;1.48;;
23628;SDS011;11991;57.150;-2.134;2023-11-19T00:55:04;2.42;;;1.77;;
23628;SDS011;11991;57.150;-2.134;2023-11-19T00:57:32;2.55;;;1.80;;
23628;SDS011;11991;57.150;-2.134;2023-11-19T00:59:59;2.63;;;2.00;;
23628;SDS011;11991;57.150;-2.134;2023-11-19T01:02:26;4.45;;;2.67;;
23628;SDS011;11991;57.150;-2.134;2023-11-19T01:04:55;2.53;;;1.65;;
23628;SDS011;11991;57.150;-2.134;2023-11-19T01:07:22;1.80;;;1.48;;
23628;SDS011;11991;57.150;-2.134;2023-11-19T01:09:50;1.73;;;1.35;;
23628;SDS011;11991;57.150;-2.134;2023-11-19T01:12:17;1.73;;;1.38;;
23628;SDS011;11991;57.150;-2.134;2023-11-19T01:14:45;2.33;;;1.63;;
23628;SDS011;11991;57.150;-2.134;2023-11-19T01:17:12;2.10;;;1.60;;
23628;SDS011;11991;57.150;-2.134;2023-11-19T01:19:39;1.65;;;1.27;;
23628;SDS011;11991;57.150;-2.134;2023-11-19T01:22:06;1.17;;;0.98;;
23628;SDS011;11991;57.150;-2.134;2023-11-19T01:24:33;2.72;;;1.50;;
23628;SDS011;11991;57.150;-2.134;2023-11-19T01:27:00;0.95;;;0.93;;
23628;SDS011;11991;57.150;-2.134;2023-11-19T01:29:27;2.15;;;1.20;;
23628;SDS011;11991;57.150;-2.134;2023-11-19T01:31:54;2.08;;;1.52;;
23628;SDS011;11991;57.150;-2.134;2023-11-19T01:34:21;1.10;;;1.00;;
23628;SDS011;11991;57.150;-2.134;2023-11-19T01:36:49;1.65;;;1.48;;
23628;SDS011;11991;57.150;-2.134;2023-11-19T01:39:16;1.10;;;0.90;;
23628;SDS011;11991;57.150;-2.134;2023-11-19T01:41:43;1.30;;;1.02;;
23628;SDS011;11991;57.150;-2.134;2023-11-19T01:44:10;1.50;;;1.17;;
23628;SDS011;11991;57.150;-2.134;2023-11-19T01:46:41;1.10;;;1.00;;
23628;SDS011;11991;57.150;-2.134;2023-11-19T01:49:10;1.15;;;1.00;;
23628;SDS011;11991;57.150;-2.134;2023-11-19T01:51:40;1.10;;;1.00;;
23628;SDS011;11991;57.150;-2.134;2023-11-19T01:54:08;1.08;;;0.98;;
23628;SDS011;11991;57.150;-2.134;2023-11-19T01:56:35;1.02;;;0.93;;
23628;SDS011;11991;57.150;-2.134;2023-11-19T01:59:05;0.88;;;0.88;;
23628;SDS011;11991;57.150;-2.134;2023-11-19T02:01:32;1.17;;;1.02;;
23628;SDS011;11991;57.150;-2.134;2023-11-19T02:04:03;0.70;;;0.70;;
23628;SDS011;11991;57.150;-2.134;2023-11-19T02:06:31;1.23;;;1.00;;
23628;SDS011;11991;57.150;-2.134;2023-11-19T02:09:01;1.02;;;0.93;;
23628;SDS011;11991;57.150;-2.134;2023-11-19T02:11:28;1.05;;;0.90;;
23628;SDS011;11991;57.150;-2.134;2023-11-19T02:13:56;1.30;;;1.00;;
23628;SDS011;11991;57.150;-2.134;2023-11-19T02:16:23;1.65;;;1.00;;
23628;SDS011;11991;57.150;-2.134;2023-11-19T02:18:52;0.90;;;0.80;;
23628;SDS011;11991;57.150;-2.134;2023-11-19T02:21:19;1.20;;;1.10;;
23628;SDS011;11991;57.150;-2.134;2023-11-19T02:23:46;1.13;;;1.00;;
23628;SDS011;11991;57.150;-2.134;2023-11-19T02:28:44;1.83;;;0.90;;
23628;SDS011;11991;57.150;-2.134;2023-11-19T02:31:11;0.90;;;0.90;;
23628;SDS011;11991;57.150;-2.134;2023-11-19T02:33:39;0.95;;;0.90;;
23628;SDS011;11991;57.150;-2.134;2023-11-19T02:36:07;1.52;;;1.00;;
23628;SDS011;11991;57.150;-2.134;2023-11-19T02:38:35;1.88;;;1.10;;
23628;SDS011;11991;57.150;-2.134;2023-11-19T02:41:03;1.50;;;1.08;;
23628;SDS011;11991;57.150;-2.134;2023-11-19T02:43:32;2.05;;;1.23;;
23628;SDS011;11991;57.150;-2.134;2023-11-19T02:46:03;1.23;;;0.95;;
23628;SDS011;11991;57.150;-2.134;2023-11-19T02:48:38;0.90;;;0.90;;
23628;SDS011;11991;57.150;-2.134;2023-11-19T02:51:05;0.80;;;0.80;;
23628;SDS011;11991;57.150;-2.134;2023-11-19T02:53:36;1.30;;;1.08;;
23628;SDS011;11991;57.150;-2.134;2023-11-19T02:56:05;1.38;;;1.10;;
23628;SDS011;11991;57.150;-2.134;2023-11-19T02:58:38;1.30;;;0.98;;
23628;SDS011;11991;57.150;-2.134;2023-11-19T03:01:05;0.80;;;0.80;;
23628;SDS011;11991;57.150;-2.134;2023-11-19T03:04:02;0.55;;;0.55;;
23628;SDS011;11991;57.150;-2.134;2023-11-19T03:06:30;2.08;;;0.73;;
23628;SDS011;11991;57.150;-2.134;2023-11-19T03:08:58;0.50;;;0.50;;
23628;SDS011;11991;57.150;-2.134;2023-11-19T03:11:32;0.70;;;0.60;;
23628;SDS011;11991;57.150;-2.134;2023-11-19T03:13:59;0.68;;;0.68;;
23628;SDS011;11991;57.150;-2.134;2023-11-19T03:16:26;0.50;;;0.50;;
23628;SDS011;11991;57.150;-2.134;2023-11-19T03:18:55;0.50;;;0.50;;
23628;SDS011;11991;57.150;-2.134;2023-11-19T03:21:29;0.63;;;0.40;;
23628;SDS011;11991;57.150;-2.134;2023-11-19T03:23:58;0.47;;;0.40;;
23628;SDS011;11991;57.150;-2.134;2023-11-19T03:26:27;0.73;;;0.40;;
23628;SDS011;11991;57.150;-2.134;2023-11-19T03:28:55;1.10;;;0.45;;
23628;SDS011;11991;57.150;-2.134;2023-11-19T03:31:23;1.20;;;0.57;;
23628;SDS011;11991;57.150;-2.134;2023-11-19T03:33:51;0.40;;;0.40;;
23628;SDS011;11991;57.150;-2.134;2023-11-19T03:36:20;0.30;;;0.30;;
23628;SDS011;11991;57.150;-2.134;2023-11-19T03:38:49;0.40;;;0.40;;
23628;SDS011;11991;57.150;-2.134;2023-11-19T03:41:16;0.60;;;0.40;;
23628;SDS011;11991;57.150;-2.134;2023-11-19T03:43:44;0.50;;;0.50;;
23628;SDS011;11991;57.150;-2.134;2023-11-19T03:46:18;0.50;;;0.50;;
23628;SDS011;11991;57.150;-2.134;2023-11-19T03:48:49;0.50;;;0.35;;
23628;SDS011;11991;57.150;-2.134;2023-11-19T03:51:16;0.50;;;0.50;;
23628;SDS011;11991;57.150;-2.134;2023-11-19T03:53:44;0.55;;;0.47;;
23628;SDS011;11991;57.150;-2.134;2023-11-19T03:56:12;0.40;;;0.40;;
23628;SDS011;11991;57.150;-2.134;2023-11-19T03:58:39;0.50;;;0.50;;
23628;SDS011;11991;57.150;-2.134;2023-11-19T04:01:10;0.60;;;0.60;;
23628;SDS011;11991;57.150;-2.134;2023-11-19T04:03:40;0.60;;;0.60;;
23628;SDS011;11991;57.150;-2.134;2023-11-19T04:06:16;0.82;;;0.50;;
23628;SDS011;11991;57.150;-2.134;2023-11-19T04:08:43;0.50;;;0.50;;
23628;SDS011;11991;57.150;-2.134;2023-11-19T04:11:11;0.70;;;0.57;;
23628;SDS011;11991;57.150;-2.134;2023-11-19T04:13:38;0.47;;;0.47;;
23628;SDS011;11991;57.150;-2.134;2023-11-19T04:16:05;0.55;;;0.50;;
23628;SDS011;11991;57.150;-2.134;2023-11-19T04:18:32;0.52;;;0.40;;
23628;SDS011;11991;57.150;-2.134;2023-11-19T04:21:00;1.23;;;0.50;;
23628;SDS011;11991;57.150;-2.134;2023-11-19T04:23:27;0.70;;;0.47;;
23628;SDS011;11991;57.150;-2.134;2023-11-19T04:25:54;0.90;;;0.50;;
23628;SDS011;11991;57.150;-2.134;2023-11-19T04:28:36;0.50;;;0.50;;
23628;SDS011;11991;57.150;-2.134;2023-11-19T04:31:03;1.10;;;0.60;;
23628;SDS011;11991;57.150;-2.134;2023-11-19T04:33:32;0.50;;;0.40;;
23628;SDS011;11991;57.150;-2.134;2023-11-19T04:35:59;0.43;;;0.43;;
23628;SDS011;11991;57.150;-2.134;2023-11-19T04:38:27;0.47;;;0.47;;
23628;SDS011;11991;57.150;-2.134;2023-11-19T04:40:54;0.50;;;0.50;;
23628;SDS011;11991;57.150;-2.134;2023-11-19T04:43:24;0.50;;;0.50;;
23628;SDS011;11991;57.150;-2.134;2023-11-19T04:45:51;0.85;;;0.50;;
23628;SDS011;11991;57.150;-2.134;2023-11-19T04:48:18;0.55;;;0.52;;
23628;SDS011;11991;57.150;-2.134;2023-11-19T04:50:45;0.40;;;0.40;;
23628;SDS011;11991;57.150;-2.134;2023-11-19T04:53:12;0.88;;;0.80;;
23628;SDS011;11991;57.150;-2.134;2023-11-19T04:55:40;0.40;;;0.40;;
23628;SDS011;11991;57.150;-2.134;2023-11-19T04:58:07;0.43;;;0.43;;
23628;SDS011;11991;57.150;-2.134;2023-11-19T05:00:35;0.63;;;0.40;;
23628;SDS011;11991;57.150;-2.134;2023-11-19T05:03:02;0.52;;;0.50;;
23628;SDS011;11991;57.150;-2.134;2023-11-19T05:05:30;0.40;;;0.40;;
23628;SDS011;11991;57.150;-2.134;2023-11-19T05:07:57;0.80;;;0.50;;
23628;SDS011;11991;57.150;-2.134;2023-11-19T05:10:24;0.47;;;0.47;;
23628;SDS011;11991;57.150;-2.134;2023-11-19T05:12:51;0.40;;;0.40;;
23628;SDS011;11991;57.150;-2.134;2023-11-19T05:15:18;1.25;;;0.70;;
23628;SDS011;11991;57.150;-2.134;2023-11-19T05:17:45;0.45;;;0.45;;
23628;SDS011;11991;57.150;-2.134;2023-11-19T05:20:12;0.57;;;0.50;;
23628;SDS011;11991;57.150;-2.134;2023-11-19T05:22:40;0.70;;;0.50;;
23628;SDS011;11991;57.150;-2.134;2023-11-19T05:25:08;0.50;;;0.50;;
23628;SDS011;11991;57.150;-2.134;2023-11-19T05:27:37;0.50;;;0.50;;
23628;SDS011;11991;57.150;-2.134;2023-11-19T05:30:05;0.40;;;0.40;;
23628;SDS011;11991;57.150;-2.134;2023-11-19T05:32:37;0.88;;;0.40;;
23628;SDS011;11991;57.150;-2.134;2023-11-19T05:35:04;0.30;;;0.30;;
23628;SDS011;11991;57.150;-2.134;2023-11-19T05:37:32;0.50;;;0.40;;
23628;SDS011;11991;57.150;-2.134;2023-11-19T05:40:01;0.68;;;0.50;;
23628;SDS011;11991;57.150;-2.134;2023-11-19T05:42:30;0.47;;;0.40;;
23628;SDS011;11991;57.150;-2.134;2023-11-19T05:44:57;0.30;;;0.30;;
23628;SDS011;11991;57.150;-2.134;2023-11-19T05:47:24;0.90;;;0.35;;
23628;SDS011;11991;57.150;-2.134;2023-11-19T05:49:52;0.40;;;0.40;;
23628;SDS011;11991;57.150;-2.134;2023-11-19T05:52:19;0.30;;;0.30;;
23628;SDS011;11991;57.150;-2.134;2023-11-19T05:54:48;0.57;;;0.30;;
23628;SDS011;11991;57.150;-2.134;2023-11-19T05:57:18;0.30;;;0.30;;
23628;SDS011;11991;57.150;-2.134;2023-11-19T05:59:49;0.40;;;0.40;;
23628;SDS011;11991;57.150;-2.134;2023-11-19T06:02:16;0.30;;;0.30;;
23628;SDS011;11991;57.150;-2.134;2023-11-19T06:04:43;0.82;;;0.38;;
23628;SDS011;11991;57.150;-2.134;2023-11-19T06:07:14;0.65;;;0.40;;
23628;SDS011;11991;57.150;-2.134;2023-11-19T06:09:41;0.30;;;0.30;;
23628;SDS011;11991;57.150;-2.134;2023-11-19T06:12:09;1.38;;;0.63;;
23628;SDS011;11991;57.150;-2.134;2023-11-19T06:14:36;0.38;;;0.38;;
23628;SDS011;11991;57.150;-2.134;2023-11-19T06:17:03;1.25;;;0.43;;
23628;SDS011;11991;57.150;-2.134;2023-11-19T06:19:31;0.40;;;0.40;;
23628;SDS011;11991;57.150;-2.134;2023-11-19T06:21:59;0.47;;;0.30;;
23628;SDS011;11991;57.150;-2.134;2023-11-19T06:24:26;0.93;;;0.50;;
23628;SDS011;11991;57.150;-2.134;2023-11-19T06:26:54;0.30;;;0.30;;
23628;SDS011;11991;57.150;-2.134;2023-11-19T06:29:21;0.52;;;0.40;;
23628;SDS011;11991;57.150;-2.134;2023-11-19T06:31:48;0.40;;;0.40;;
23628;SDS011;11991;57.150;-2.134;2023-11-19T06:34:15;1.10;;;0.80;;
23628;SDS011;11991;57.150;-2.134;2023-11-19T06:36:43;0.68;;;0.40;;
23628;SDS011;11991;57.150;-2.134;2023-11-19T06:39:10;0.35;;;0.30;;
23628;SDS011;11991;57.150;-2.134;2023-11-19T06:41:37;0.75;;;0.40;;
23628;SDS011;11991;57.150;-2.134;2023-11-19T06:44:05;0.43;;;0.40;;
23628;SDS011;11991;57.150;-2.134;2023-11-19T06:46:32;0.50;;;0.32;;
23628;SDS011;11991;57.150;-2.134;2023-11-19T06:48:59;0.30;;;0.30;;
23628;SDS011;11991;57.150;-2.134;2023-11-19T06:51:27;0.88;;;0.43;;
23628;SDS011;11991;57.150;-2.134;2023-11-19T06:53:56;0.30;;;0.30;;
23628;SDS011;11991;57.150;-2.134;2023-11-19T06:56:23;0.32;;;0.30;;
23628;SDS011;11991;57.150;-2.134;2023-11-19T06:58:51;0.30;;;0.30;;
23628;SDS011;11991;57.150;-2.134;2023-11-19T07:01:18;0.30;;;0.30;;
23628;SDS011;11991;57.150;-2.134;2023-11-19T07:03:46;0.30;;;0.30;;
23628;SDS011;11991;57.150;-2.134;2023-11-19T07:06:14;1.00;;;0.30;;
23628;SDS011;11991;57.150;-2.134;2023-11-19T07:08:41;0.40;;;0.40;;
23628;SDS011;11991;57.150;-2.134;2023-11-19T07:11:12;0.32;;;0.30;;
23628;SDS011;11991;57.150;-2.134;2023-11-19T07:13:43;0.77;;;0.40;;
23628;SDS011;11991;57.150;-2.134;2023-11-19T07:16:13;0.38;;;0.38;;
23628;SDS011;11991;57.150;-2.134;2023-11-19T07:18:41;1.02;;;0.40;;
23628;SDS011;11991;57.150;-2.134;2023-11-19T07:21:10;0.65;;;0.45;;
23628;SDS011;11991;57.150;-2.134;2023-11-19T07:23:37;0.52;;;0.40;;
23628;SDS011;11991;57.150;-2.134;2023-11-19T07:26:05;0.40;;;0.40;;
23628;SDS011;11991;57.150;-2.134;2023-11-19T07:28:36;0.40;;;0.40;;
23628;SDS011;11991;57.150;-2.134;2023-11-19T07:31:03;0.30;;;0.30;;
23628;SDS011;11991;57.150;-2.134;2023-11-19T07:33:31;0.30;;;0.30;;
23628;SDS011;11991;57.150;-2.134;2023-11-19T07:35:58;0.30;;;0.30;;
23628;SDS011;11991;57.150;-2.134;2023-11-19T07:38:25;0.30;;;0.30;;
23628;SDS011;11991;57.150;-2.134;2023-11-19T07:40:52;0.57;;;0.30;;
23628;SDS011;11991;57.150;-2.134;2023-11-19T07:43:23;0.63;;;0.30;;
23628;SDS011;11991;57.150;-2.134;2023-11-19T07:45:50;1.85;;;1.35;;
23628;SDS011;11991;57.150;-2.134;2023-11-19T07:48:18;5.72;;;4.35;;
23628;SDS011;11991;57.150;-2.134;2023-11-19T07:50:49;5.28;;;4.55;;
23628;SDS011;11991;57.150;-2.134;2023-11-19T07:53:16;2.10;;;1.90;;
23628;SDS011;11991;57.150;-2.134;2023-11-19T07:55:43;1.85;;;1.75;;
23628;SDS011;11991;57.150;-2.134;2023-11-19T07:58:11;2.50;;;2.30;;
23628;SDS011;11991;57.150;-2.134;2023-11-19T08:00:38;2.10;;;1.90;;
23628;SDS011;11991;57.150;-2.134;2023-11-19T08:03:06;1.40;;;1.30;;
23628;SDS011;11991;57.150;-2.134;2023-11-19T08:05:34;1.58;;;1.48;;
23628;SDS011;11991;57.150;-2.134;2023-11-19T08:08:01;1.25;;;1.15;;
23628;SDS011;11991;57.150;-2.134;2023-11-19T08:10:28;0.95;;;0.80;;
23628;SDS011;11991;57.150;-2.134;2023-11-19T08:12:55;0.90;;;0.90;;
23628;SDS011;11991;57.150;-2.134;2023-11-19T08:15:23;2.15;;;2.03;;
23628;SDS011;11991;57.150;-2.134;2023-11-19T08:17:53;2.35;;;2.17;;
23628;SDS011;11991;57.150;-2.134;2023-11-19T08:20:20;2.65;;;2.45;;
23628;SDS011;11991;57.150;-2.134;2023-11-19T08:22:47;2.00;;;1.80;;
23628;SDS011;11991;57.150;-2.134;2023-11-19T08:25:14;1.60;;;1.50;;
23628;SDS011;11991;57.150;-2.134;2023-11-19T08:27:42;1.40;;;1.30;;
23628;SDS011;11991;57.150;-2.134;2023-11-19T08:30:09;0.70;;;0.70;;
23628;SDS011;11991;57.150;-2.134;2023-11-19T08:32:37;1.00;;;0.65;;
23628;SDS011;11991;57.150;-2.134;2023-11-19T08:35:04;0.77;;;0.55;;
23628;SDS011;11991;57.150;-2.134;2023-11-19T08:37:32;0.47;;;0.47;;
23628;SDS011;11991;57.150;-2.134;2023-11-19T08:39:59;0.55;;;0.50;;
23628;SDS011;11991;57.150;-2.134;2023-11-19T08:42:27;0.40;;;0.40;;
23628;SDS011;11991;57.150;-2.134;2023-11-19T08:44:54;1.05;;;0.50;;
23628;SDS011;11991;57.150;-2.134;2023-11-19T08:47:21;0.43;;;0.43;;
23628;SDS011;11991;57.150;-2.134;2023-11-19T08:49:52;0.98;;;0.60;;
23628;SDS011;11991;57.150;-2.134;2023-11-19T08:52:22;0.85;;;0.85;;
23628;SDS011;11991;57.150;-2.134;2023-11-19T08:54:50;0.80;;;0.70;;
23628;SDS011;11991;57.150;-2.134;2023-11-19T08:57:17;0.40;;;0.40;;
23628;SDS011;11991;57.150;-2.134;2023-11-19T08:59:44;0.40;;;0.40;;
23628;SDS011;11991;57.150;-2.134;2023-11-19T09:02:12;0.35;;;0.35;;
23628;SDS011;11991;57.150;-2.134;2023-11-19T09:04:39;0.50;;;0.50;;
23628;SDS011;11991;57.150;-2.134;2023-11-19T09:07:07;0.60;;;0.50;;
23628;SDS011;11991;57.150;-2.134;2023-11-19T09:09:36;0.40;;;0.40;;
23628;SDS011;11991;57.150;-2.134;2023-11-19T09:12:03;0.40;;;0.40;;
23628;SDS011;11991;57.150;-2.134;2023-11-19T09:14:30;1.75;;;0.60;;
23628;SDS011;11991;57.150;-2.134;2023-11-19T09:16:58;0.63;;;0.50;;
23628;SDS011;11991;57.150;-2.134;2023-11-19T09:19:26;0.43;;;0.43;;
23628;SDS011;11991;57.150;-2.134;2023-11-19T09:21:53;0.40;;;0.40;;
23628;SDS011;11991;57.150;-2.134;2023-11-19T09:24:20;0.40;;;0.40;;
23628;SDS011;11991;57.150;-2.134;2023-11-19T09:26:47;0.30;;;0.30;;
23628;SDS011;11991;57.150;-2.134;2023-11-19T09:29:14;0.70;;;0.60;;
23628;SDS011;11991;57.150;-2.134;2023-11-19T09:31:43;0.40;;;0.40;;
23628;SDS011;11991;57.150;-2.134;2023-11-19T09:34:10;0.93;;;0.93;;
23628;SDS011;11991;57.150;-2.134;2023-11-19T09:36:37;1.73;;;1.63;;
23628;SDS011;11991;57.150;-2.134;2023-11-19T09:39:05;1.95;;;1.75;;
23628;SDS011;11991;57.150;-2.134;2023-11-19T09:41:34;1.00;;;0.77;;
23628;SDS011;11991;57.150;-2.134;2023-11-19T09:44:02;0.90;;;0.90;;
23628;SDS011;11991;57.150;-2.134;2023-11-19T09:46:29;0.50;;;0.50;;
23628;SDS011;11991;57.150;-2.134;2023-11-19T09:48:57;0.60;;;0.50;;
23628;SDS011;11991;57.150;-2.134;2023-11-19T09:51:26;0.90;;;0.70;;
23628;SDS011;11991;57.150;-2.134;2023-11-19T09:53:53;0.50;;;0.50;;
23628;SDS011;11991;57.150;-2.134;2023-11-19T09:56:20;0.50;;;0.50;;
23628;SDS011;11991;57.150;-2.134;2023-11-19T09:58:48;0.40;;;0.40;;
23628;SDS011;11991;57.150;-2.134;2023-11-19T10:01:16;0.40;;;0.40;;
23628;SDS011;11991;57.150;-2.134;2023-11-19T10:03:46;0.45;;;0.43;;
23628;SDS011;11991;57.150;-2.134;2023-11-19T10:06:15;1.25;;;0.60;;
23628;SDS011;11991;57.150;-2.134;2023-11-19T10:08:42;0.63;;;0.40;;
23628;SDS011;11991;57.150;-2.134;2023-11-19T10:11:10;0.40;;;0.40;;
23628;SDS011;11991;57.150;-2.134;2023-11-19T10:13:39;0.57;;;0.52;;
23628;SDS011;11991;57.150;-2.134;2023-11-19T10:16:12;0.40;;;0.40;;
23628;SDS011;11991;57.150;-2.134;2023-11-19T10:18:47;0.40;;;0.40;;
23628;SDS011;11991;57.150;-2.134;2023-11-19T10:21:18;0.52;;;0.50;;
23628;SDS011;11991;57.150;-2.134;2023-11-19T10:23:49;0.50;;;0.50;;
23628;SDS011;11991;57.150;-2.134;2023-11-19T10:26:18;0.43;;;0.43;;
23628;SDS011;11991;57.150;-2.134;2023-11-19T10:28:47;0.40;;;0.40;;
23628;SDS011;11991;57.150;-2.134;2023-11-19T10:31:14;0.40;;;0.40;;
23628;SDS011;11991;57.150;-2.134;2023-11-19T10:33:42;0.75;;;0.40;;
23628;SDS011;11991;57.150;-2.134;2023-11-19T10:36:12;0.55;;;0.40;;
23628;SDS011;11991;57.150;-2.134;2023-11-19T10:38:40;1.05;;;0.45;;
23628;SDS011;11991;57.150;-2.134;2023-11-19T10:41:07;0.30;;;0.30;;
23628;SDS011;11991;57.150;-2.134;2023-11-19T10:43:43;0.80;;;0.50;;
23628;SDS011;11991;57.150;-2.134;2023-11-19T10:46:12;0.40;;;0.40;;
23628;SDS011;11991;57.150;-2.134;2023-11-19T10:48:40;0.60;;;0.40;;
23628;SDS011;11991;57.150;-2.134;2023-11-19T10:51:07;0.40;;;0.40;;
23628;SDS011;11991;57.150;-2.134;2023-11-19T10:53:35;1.15;;;0.80;;
23628;SDS011;11991;57.150;-2.134;2023-11-19T10:56:06;2.70;;;1.98;;
23628;SDS011;11991;57.150;-2.134;2023-11-19T10:58:37;2.25;;;1.70;;
23628;SDS011;11991;57.150;-2.134;2023-11-19T11:01:13;1.55;;;1.25;;
23628;SDS011;11991;57.150;-2.134;2023-11-19T11:03:45;1.10;;;0.90;;
23628;SDS011;11991;57.150;-2.134;2023-11-19T11:06:13;1.13;;;0.90;;
23628;SDS011;11991;57.150;-2.134;2023-11-19T11:08:40;1.13;;;0.70;;
23628;SDS011;11991;57.150;-2.134;2023-11-19T11:11:09;1.30;;;0.93;;
23628;SDS011;11991;57.150;-2.134;2023-11-19T11:13:42;1.35;;;1.08;;
23628;SDS011;11991;57.150;-2.134;2023-11-19T11:16:10;2.00;;;1.30;;
23628;SDS011;11991;57.150;-2.134;2023-11-19T11:18:39;1.33;;;1.05;;
23628;SDS011;11991;57.150;-2.134;2023-11-19T11:21:10;1.10;;;0.98;;
23628;SDS011;11991;57.150;-2.134;2023-11-19T11:32:23;1.17;;;0.95;;
23628;SDS011;11991;57.150;-2.134;2023-11-19T11:37:53;1.50;;;0.80;;
23628;SDS011;11991;57.150;-2.134;2023-11-19T11:40:26;1.05;;;0.80;;
23628;SDS011;11991;57.150;-2.134;2023-11-19T11:42:54;1.00;;;0.90;;
23628;SDS011;11991;57.150;-2.134;2023-11-19T11:45:34;0.90;;;0.70;;
23628;SDS011;11991;57.150;-2.134;2023-11-19T11:48:08;1.63;;;1.05;;
23628;SDS011;11991;57.150;-2.134;2023-11-19T11:50:47;1.58;;;1.13;;
23628;SDS011;11991;57.150;-2.134;2023-11-19T11:53:20;1.00;;;0.80;;
23628;SDS011;11991;57.150;-2.134;2023-11-19T11:58:18;1.10;;;1.00;;
23628;SDS011;11991;57.150;-2.134;2023-11-19T12:00:47;1.13;;;1.02;;
23628;SDS011;11991;57.150;-2.134;2023-11-19T12:03:15;1.20;;;1.10;;
23628;SDS011;11991;57.150;-2.134;2023-11-19T12:05:46;1.08;;;0.80;;
23628;SDS011;11991;57.150;-2.134;2023-11-19T12:08:14;1.10;;;0.90;;
23628;SDS011;11991;57.150;-2.134;2023-11-19T12:10:51;0.90;;;0.70;;
23628;SDS011;11991;57.150;-2.134;2023-11-19T12:13:20;1.42;;;0.90;;
23628;SDS011;11991;57.150;-2.134;2023-11-19T12:18:26;4.43;;;4.03;;
23628;SDS011;11991;57.150;-2.134;2023-11-19T12:20:54;7.90;;;7.05;;
23628;SDS011;11991;57.150;-2.134;2023-11-19T12:23:25;2.95;;;2.72;;
23628;SDS011;11991;57.150;-2.134;2023-11-19T12:25:53;1.50;;;1.40;;
23628;SDS011;11991;57.150;-2.134;2023-11-19T12:28:21;1.48;;;1.38;;
23628;SDS011;11991;57.150;-2.134;2023-11-19T12:30:50;2.13;;;1.10;;
23628;SDS011;11991;57.150;-2.134;2023-11-19T12:33:17;1.17;;;1.08;;
23628;SDS011;11991;57.150;-2.134;2023-11-19T12:35:45;1.13;;;0.93;;
23628;SDS011;11991;57.150;-2.134;2023-11-19T12:38:23;1.35;;;1.20;;
23628;SDS011;11991;57.150;-2.134;2023-11-19T12:41:07;1.20;;;1.08;;
23628;SDS011;11991;57.150;-2.134;2023-11-19T12:43:38;1.02;;;0.90;;
23628;SDS011;11991;57.150;-2.134;2023-11-19T12:46:21;1.17;;;0.80;;
23628;SDS011;11991;57.150;-2.134;2023-11-19T12:48:50;1.55;;;1.02;;
23628;SDS011;11991;57.150;-2.134;2023-11-19T12:51:18;1.15;;;0.88;;
23628;SDS011;11991;57.150;-2.134;2023-11-19T12:53:50;1.00;;;0.90;;
23628;SDS011;11991;57.150;-2.134;2023-11-19T12:56:21;0.90;;;0.90;;
23628;SDS011;11991;57.150;-2.134;2023-11-19T12:58:49;1.10;;;1.00;;
23628;SDS011;11991;57.150;-2.134;2023-11-19T13:01:17;1.30;;;1.00;;
23628;SDS011;11991;57.150;-2.134;2023-11-19T13:03:46;1.30;;;1.20;;
23628;SDS011;11991;57.150;-2.134;2023-11-19T13:06:15;1.50;;;1.20;;
23628;SDS011;11991;57.150;-2.134;2023-11-19T13:08:49;1.50;;;0.90;;
23628;SDS011;11991;57.150;-2.134;2023-11-19T13:11:31;1.50;;;1.02;;
23628;SDS011;11991;57.150;-2.134;2023-11-19T13:14:00;1.10;;;0.90;;
23628;SDS011;11991;57.150;-2.134;2023-11-19T13:16:31;1.60;;;1.10;;
23628;SDS011;11991;57.150;-2.134;2023-11-19T13:18:59;1.45;;;1.00;;
23628;SDS011;11991;57.150;-2.134;2023-11-19T13:21:27;2.05;;;1.58;;
23628;SDS011;11991;57.150;-2.134;2023-11-19T13:23:54;2.60;;;1.58;;
23628;SDS011;11991;57.150;-2.134;2023-11-19T13:26:22;1.95;;;1.63;;
23628;SDS011;11991;57.150;-2.134;2023-11-19T13:28:49;1.77;;;1.30;;
23628;SDS011;11991;57.150;-2.134;2023-11-19T13:31:16;2.35;;;1.63;;
23628;SDS011;11991;57.150;-2.134;2023-11-19T13:33:44;2.35;;;1.70;;
23628;SDS011;11991;57.150;-2.134;2023-11-19T13:36:11;2.13;;;1.92;;
23628;SDS011;11991;57.150;-2.134;2023-11-19T13:38:42;3.38;;;2.47;;
23628;SDS011;11991;57.150;-2.134;2023-11-19T13:41:11;3.13;;;2.35;;
23628;SDS011;11991;57.150;-2.134;2023-11-19T13:43:40;2.20;;;1.98;;
23628;SDS011;11991;57.150;-2.134;2023-11-19T13:46:07;2.45;;;2.20;;
23628;SDS011;11991;57.150;-2.134;2023-11-19T13:48:37;2.72;;;1.88;;
23628;SDS011;11991;57.150;-2.134;2023-11-19T13:51:04;3.33;;;2.35;;
23628;SDS011;11991;57.150;-2.134;2023-11-19T13:53:32;2.55;;;2.33;;
23628;SDS011;11991;57.150;-2.134;2023-11-19T13:56:17;4.15;;;2.70;;
23628;SDS011;11991;57.150;-2.134;2023-11-19T13:58:44;2.35;;;1.80;;
23628;SDS011;11991;57.150;-2.134;2023-11-19T14:01:12;2.38;;;1.92;;
23628;SDS011;11991;57.150;-2.134;2023-11-19T14:03:41;1.98;;;1.50;;
23628;SDS011;11991;57.150;-2.134;2023-11-19T14:06:08;3.20;;;2.60;;
23628;SDS011;11991;57.150;-2.134;2023-11-19T14:08:36;3.20;;;2.90;;
23628;SDS011;11991;57.150;-2.134;2023-11-19T14:11:04;2.15;;;1.80;;
23628;SDS011;11991;57.150;-2.134;2023-11-19T14:13:31;1.60;;;1.50;;
23628;SDS011;11991;57.150;-2.134;2023-11-19T14:15:59;1.83;;;1.50;;
23628;SDS011;11991;57.150;-2.134;2023-11-19T14:18:27;2.58;;;1.75;;
23628;SDS011;11991;57.150;-2.134;2023-11-19T14:20:54;1.90;;;1.70;;
23628;SDS011;11991;57.150;-2.134;2023-11-19T14:23:21;2.58;;;1.85;;
23628;SDS011;11991;57.150;-2.134;2023-11-19T14:25:48;2.55;;;1.75;;
23628;SDS011;11991;57.150;-2.134;2023-11-19T14:28:16;2.30;;;2.10;;
23628;SDS011;11991;57.150;-2.134;2023-11-19T14:30:43;2.05;;;1.80;;
23628;SDS011;11991;57.150;-2.134;2023-11-19T14:33:12;1.83;;;1.60;;
23628;SDS011;11991;57.150;-2.134;2023-11-19T14:35:39;2.13;;;1.92;;
23628;SDS011;11991;57.150;-2.134;2023-11-19T14:38:06;2.15;;;1.80;;
23628;SDS011;11991;57.150;-2.134;2023-11-19T14:40:36;1.70;;;1.23;;
23628;SDS011;11991;57.150;-2.134;2023-11-19T14:43:06;2.17;;;1.95;;
23628;SDS011;11991;57.150;-2.134;2023-11-19T14:45:37;1.50;;;1.40;;
23628;SDS011;11991;57.150;-2.134;2023-11-19T14:48:15;1.67;;;1.50;;
23628;SDS011;11991;57.150;-2.134;2023-11-19T14:50:42;2.90;;;1.73;;
23628;SDS011;11991;57.150;-2.134;2023-11-19T14:53:11;1.58;;;1.05;;
23628;SDS011;11991;57.150;-2.134;2023-11-19T14:55:38;2.20;;;1.38;;
23628;SDS011;11991;57.150;-2.134;2023-11-19T14:58:05;0.77;;;0.77;;
23628;SDS011;11991;57.150;-2.134;2023-11-19T15:00:37;1.02;;;0.93;;